D/T METAR WX W/DIR W/SPE G/SPE TEMP DEWP
23/05/19 12:50 EGOS 231150Z 21009KT CAVOK 17/06 Q1015 BLU NOSIG SSW (210°) 10.4mph 17°C 6°C
23/05/19 11:50 EGOS 231050Z 21007KT 9999 FEW046 SCT230 17/07 Q1016 BLU NOSIG SSW (210°) 8.1mph 17°C 7°C
23/05/19 10:50 EGOS 230950Z 24006KT 9999 FEW046 SCT220 16/04 Q1016 BLU NOSIG WSW (240°) 6.9mph 16°C 4°C
23/05/19 09:50 EGOS 230850Z 21006KT CAVOK 14/07 Q1016 BLU NOSIG SSW (210°) 6.9mph 14°C 7°C
23/05/19 08:50 EGOS 230750Z 24006KT CAVOK 13/06 Q1016 BLU NOSIG WSW (240°) 6.9mph 13°C 6°C
23/05/19 07:50 EGOS 230650Z 21003KT CAVOK 11/06 Q1017 BLU NOSIG SSW (210°) 3.5mph 11°C 6°C
23/05/19 06:50 EGOS 230550Z 02001KT CAVOK 08/06 Q1016 BLU NOSIG NNE (20°) 1.2mph 8°C 6°C
23/05/19 05:50 EGOS 230450Z AUTO 00000KT 9999 NCD 06/04 Q1016 N (0°) 6°C 4°C
23/05/19 04:50 EGOS 230350Z AUTO 27001KT 9999 FEW200/// 06/05 Q1017 W (270°) 1.2mph 6°C 5°C
23/05/19 03:50 EGOS 230250Z AUTO 10001KT 9999 SCT200/// 06/04 Q1017 E (100°) 1.2mph 6°C 4°C
23/05/19 02:50 EGOS 230150Z AUTO 22004KT 9999 BKN200/// 08/06 Q1017 SW (220°) 4.6mph 8°C 6°C
23/05/19 01:50 EGOS 230050Z 25003KT CAVOK 08/06 Q1017 BLU WSW (250°) 3.5mph 8°C 6°C
23/05/19 00:50 EGOS 222350Z 23005KT CAVOK 09/06 Q1017 BLU NOSIG SW (230°) 5.8mph 9°C 6°C
22/05/19 23:50 EGOS 222250Z 25005KT CAVOK 09/06 Q1017 BLU NOSIG WSW (250°) 5.8mph 9°C 6°C
22/05/19 22:50 EGOS 222150Z 26008KT CAVOK 09/05 Q1018 BLU NOSIG W (260°) 9.2mph 9°C 5°C
22/05/19 21:50 EGOS 222050Z 25005KT CAVOK 12/05 Q1018 BLU NOSIG WSW (250°) 5.8mph 12°C 5°C
22/05/19 20:50 EGOS 221950Z 27009KT CAVOK 13/05 Q1018 BLU NOSIG W (270°) 10.4mph 13°C 5°C
22/05/19 19:50 EGOS 221850Z 26006KT CAVOK 14/07 Q1017 BLU W (260°) 6.9mph 14°C 7°C
22/05/19 18:50 EGOS 221750Z 26008KT CAVOK 16/07 Q1018 BLU W (260°) 9.2mph 16°C 7°C
22/05/19 17:50 EGOS 221650Z 26012KT CAVOK 17/05 Q1018 BLU W (260°) 13.8mph 17°C 5°C
22/05/19 16:50 EGOS 221550Z 25012KT CAVOK 18/07 Q1018 BLU NOSIG WSW (250°) 13.8mph 18°C 7°C
22/05/19 15:50 EGOS 221450Z 27010KT CAVOK 18/04 Q1018 BLU NOSIG W (270°) 11.5mph 18°C 4°C
22/05/19 14:50 EGOS 221350Z 25010KT 9999 FEW045 BKN160 17/06 Q1018 BLU NOSIG WSW (250°) 11.5mph 17°C 6°C
22/05/19 13:50 EGOS 221250Z 25013KT 9999 FEW045 BKN160 17/05 Q1019 BLU NOSIG WSW (250°) 15.0mph 17°C 5°C
22/05/19 12:50 EGOS 221150Z 25014KT 9999 FEW045 BKN150 17/06 Q1019 BLU NOSIG WSW (250°) 16.1mph 17°C 6°C
22/05/19 11:50 EGOS 221050Z 25012KT 9999 FEW040 SCT100 BKN200 16/07 Q1019 BLU NOSIG WSW (250°) 13.8mph 16°C 7°C
22/05/19 10:50 EGOS 220950Z 23011KT 9999 FEW030 SCT100 BKN160 15/07 Q1019 BLU NOSIG SW (230°) 12.7mph 15°C 7°C
22/05/19 09:50 EGOS 220850Z AUTO 22006KT 9999 FEW070/// BKN100/// 13/07 Q1019 SW (220°) 6.9mph 13°C 7°C
22/05/19 08:50 EGOS 220750Z AUTO 18001KT 9999 FEW070/// OVC100/// 12/07 Q1019 S (180°) 1.2mph 12°C 7°C
22/05/19 07:50 EGOS 220650Z 15003KT CAVOK 10/06 Q1019 BLU NOSIG SSE (150°) 3.5mph 10°C 6°C
22/05/19 06:50 EGOS 220550Z 20002KT CAVOK 09/06 Q1019 BLU SSW (200°) 2.3mph 9°C 6°C
22/05/19 05:50 EGOS 220450Z 21003KT CAVOK 08/06 Q1019 BLU SSW (210°) 3.5mph 8°C 6°C
22/05/19 04:50 EGOS 220350Z AUTO 22003KT 9999 BKN080/// SCT120/// BKN150/// 07/05 Q1019 SW (220°) 3.5mph 7°C 5°C
22/05/19 03:50 EGOS 220250Z AUTO 33001KT 9999 BKN050/// OVC080/// 08/05 Q1020 NNW (330°) 1.2mph 8°C 5°C
22/05/19 02:50 EGOS 220150Z AUTO 32001KT 9999 SCT050/// BKN080/// OVC180/// 07/05 Q1020 NW (320°) 1.2mph 7°C 5°C
22/05/19 01:50 EGOS 220050Z AUTO 28001KT 9999 FEW080/// OVC180/// 07/04 Q1020 W (280°) 1.2mph 7°C 4°C
22/05/19 00:50 EGOS 212350Z 34002KT CAVOK 07/04 Q1020 BLU NOSIG NNW (340°) 2.3mph 7°C 4°C
21/05/19 23:50 EGOS 212250Z 34001KT CAVOK 07/04 Q1020 BLU NOSIG NNW (340°) 1.2mph 7°C 4°C
21/05/19 22:50 EGOS 212150Z 24003KT CAVOK 08/04 Q1020 BLU NOSIG WSW (240°) 3.5mph 8°C 4°C
21/05/19 21:50 EGOS 212050Z 32005KT CAVOK 09/04 Q1020 BLU NOSIG NW (320°) 5.8mph 9°C 4°C
21/05/19 20:50 EGOS 211950Z 34006KT CAVOK 11/04 Q1020 BLU NOSIG NNW (340°) 6.9mph 11°C 4°C
21/05/19 19:50 EGOS 211850Z 33008KT CAVOK 14/04 Q1020 BLU NNW (330°) 9.2mph 14°C 4°C
21/05/19 18:50 EGOS 211750Z 33008KT CAVOK 14/05 Q1020 BLU NNW (330°) 9.2mph 14°C 5°C
21/05/19 17:50 EGOS 211650Z 35011KT CAVOK 14/05 Q1020 BLU N (350°) 12.7mph 14°C 5°C
21/05/19 16:50 EGOS 211550Z 34011KT CAVOK 16/07 Q1020 BLU NOSIG NNW (340°) 12.7mph 16°C 7°C
21/05/19 15:50 EGOS 211450Z 34010KT CAVOK 16/07 Q1020 BLU NOSIG NNW (340°) 11.5mph 16°C 7°C
21/05/19 14:50 EGOS 211350Z 36010KT CAVOK 16/07 Q1019 BLU NOSIG N (360°) 11.5mph 16°C 7°C
21/05/19 13:50 EGOS 211250Z 33010KT 9999 FEW045 15/06 Q1019 BLU NOSIG NNW (330°) 11.5mph 15°C 6°C